sensor_id;sensor_type;location;lat;lon;timestamp;pressure;altitude;pressure_sealevel;temperature;humidity
68889;BME280;55930;47.412;8.790;2024-02-23T00:01:15;93630.41;;;4.44;100.00
68889;BME280;55930;47.412;8.790;2024-02-23T00:04:36;93616.41;;;4.38;100.00
68889;BME280;55930;47.412;8.790;2024-02-23T00:07:56;93610.28;;;4.32;100.00
68889;BME280;55930;47.412;8.790;2024-02-23T00:11:19;93602.25;;;4.36;100.00
68889;BME280;55930;47.412;8.790;2024-02-23T00:14:39;93589.56;;;4.34;100.00
68889;BME280;55930;47.412;8.790;2024-02-23T00:17:59;93595.13;;;4.27;100.00
68889;BME280;55930;47.412;8.790;2024-02-23T00:21:20;93582.72;;;4.37;100.00
68889;BME280;55930;47.412;8.790;2024-02-23T00:24:40;93582.75;;;4.28;100.00
68889;BME280;55930;47.412;8.790;2024-02-23T00:28:01;93584.63;;;4.27;100.00
68889;BME280;55930;47.412;8.790;2024-02-23T00:31:21;93586.09;;;4.28;100.00
68889;BME280;55930;47.412;8.790;2024-02-23T00:34:41;93571.50;;;4.27;100.00
68889;BME280;55930;47.412;8.790;2024-02-23T00:38:02;93572.53;;;4.20;100.00
68889;BME280;55930;47.412;8.790;2024-02-23T00:41:22;93555.75;;;4.27;100.00
68889;BME280;55930;47.412;8.790;2024-02-23T00:44:43;93550.69;;;4.14;100.00
68889;BME280;55930;47.412;8.790;2024-02-23T00:48:06;93552.72;;;4.19;100.00
68889;BME280;55930;47.412;8.790;2024-02-23T00:51:26;93545.13;;;4.21;100.00
68889;BME280;55930;47.412;8.790;2024-02-23T00:54:47;93539.00;;;4.15;100.00
68889;BME280;55930;47.412;8.790;2024-02-23T00:58:07;93535.50;;;4.18;100.00
68889;BME280;55930;47.412;8.790;2024-02-23T01:01:28;93556.50;;;4.18;100.00
68889;BME280;55930;47.412;8.790;2024-02-23T01:04:48;93564.56;;;4.15;100.00
68889;BME280;55930;47.412;8.790;2024-02-23T01:08:09;93574.28;;;4.23;100.00
68889;BME280;55930;47.412;8.790;2024-02-23T01:11:29;93567.13;;;4.24;100.00
68889;BME280;55930;47.412;8.790;2024-02-23T01:14:50;93564.94;;;4.32;100.00
68889;BME280;55930;47.412;8.790;2024-02-23T01:18:10;93558.53;;;4.23;100.00
68889;BME280;55930;47.412;8.790;2024-02-23T01:21:30;93554.72;;;4.34;100.00
68889;BME280;55930;47.412;8.790;2024-02-23T01:24:51;93553.81;;;4.46;100.00
68889;BME280;55930;47.412;8.790;2024-02-23T01:28:11;93543.13;;;4.49;100.00
68889;BME280;55930;47.412;8.790;2024-02-23T01:31:31;93547.66;;;4.49;100.00
68889;BME280;55930;47.412;8.790;2024-02-23T01:34:52;93528.38;;;4.61;100.00
68889;BME280;55930;47.412;8.790;2024-02-23T01:38:12;93535.66;;;4.57;100.00
68889;BME280;55930;47.412;8.790;2024-02-23T01:41:39;93544.16;;;4.52;100.00
68889;BME280;55930;47.412;8.790;2024-02-23T01:44:59;93570.06;;;4.17;100.00
68889;BME280;55930;47.412;8.790;2024-02-23T01:48:20;93579.88;;;3.62;100.00
68889;BME280;55930;47.412;8.790;2024-02-23T01:51:41;93589.03;;;3.30;100.00
68889;BME280;55930;47.412;8.790;2024-02-23T01:55:01;93601.88;;;2.88;100.00
68889;BME280;55930;47.412;8.790;2024-02-23T01:58:24;93629.06;;;2.81;100.00
68889;BME280;55930;47.412;8.790;2024-02-23T02:01:45;93633.31;;;2.88;100.00
68889;BME280;55930;47.412;8.790;2024-02-23T02:05:05;93610.06;;;2.59;100.00
68889;BME280;55930;47.412;8.790;2024-02-23T02:08:27;93619.28;;;2.73;100.00
68889;BME280;55930;47.412;8.790;2024-02-23T02:11:48;93613.53;;;2.56;100.00
68889;BME280;55930;47.412;8.790;2024-02-23T02:15:09;93605.94;;;2.49;100.00
68889;BME280;55930;47.412;8.790;2024-02-23T02:18:29;93601.91;;;2.57;100.00
68889;BME280;55930;47.412;8.790;2024-02-23T02:21:49;93602.91;;;2.50;100.00
68889;BME280;55930;47.412;8.790;2024-02-23T02:25:10;93590.50;;;2.42;100.00
68889;BME280;55930;47.412;8.790;2024-02-23T02:28:32;93573.69;;;2.52;100.00
68889;BME280;55930;47.412;8.790;2024-02-23T02:31:53;93567.25;;;2.44;100.00
68889;BME280;55930;47.412;8.790;2024-02-23T02:35:13;93555.94;;;2.47;100.00
68889;BME280;55930;47.412;8.790;2024-02-23T02:38:33;93544.28;;;2.48;100.00
68889;BME280;55930;47.412;8.790;2024-02-23T02:41:54;93547.56;;;2.30;100.00
68889;BME280;55930;47.412;8.790;2024-02-23T02:45:14;93552.84;;;2.39;100.00
68889;BME280;55930;47.412;8.790;2024-02-23T02:48:35;93555.63;;;2.45;100.00
68889;BME280;55930;47.412;8.790;2024-02-23T02:51:55;93572.22;;;2.51;100.00
68889;BME280;55930;47.412;8.790;2024-02-23T02:55:15;93573.13;;;2.57;100.00
68889;BME280;55930;47.412;8.790;2024-02-23T02:58:36;93554.50;;;2.55;100.00
68889;BME280;55930;47.412;8.790;2024-02-23T03:01:56;93557.03;;;2.67;100.00
68889;BME280;55930;47.412;8.790;2024-02-23T03:05:17;93544.19;;;2.60;100.00
68889;BME280;55930;47.412;8.790;2024-02-23T03:08:37;93538.81;;;2.64;100.00
68889;BME280;55930;47.412;8.790;2024-02-23T03:11:58;93543.19;;;2.67;100.00
68889;BME280;55930;47.412;8.790;2024-02-23T03:15:18;93543.31;;;2.63;100.00
68889;BME280;55930;47.412;8.790;2024-02-23T03:18:39;93558.78;;;2.71;100.00
68889;BME280;55930;47.412;8.790;2024-02-23T03:21:59;93534.91;;;2.68;100.00
68889;BME280;55930;47.412;8.790;2024-02-23T03:25:19;93533.03;;;2.69;100.00
68889;BME280;55930;47.412;8.790;2024-02-23T03:28:40;93534.03;;;2.72;100.00
68889;BME280;55930;47.412;8.790;2024-02-23T03:32:00;93559.50;;;2.71;100.00
68889;BME280;55930;47.412;8.790;2024-02-23T03:35:21;93550.16;;;2.61;100.00
68889;BME280;55930;47.412;8.790;2024-02-23T03:38:42;93553.78;;;2.54;100.00
68889;BME280;55930;47.412;8.790;2024-02-23T03:42:04;93547.09;;;2.53;100.00
68889;BME280;55930;47.412;8.790;2024-02-23T03:45:25;93557.91;;;2.74;100.00
68889;BME280;55930;47.412;8.790;2024-02-23T03:48:45;93553.94;;;2.60;100.00
68889;BME280;55930;47.412;8.790;2024-02-23T03:52:06;93549.16;;;2.67;100.00
68889;BME280;55930;47.412;8.790;2024-02-23T03:55:26;93539.03;;;2.79;100.00
68889;BME280;55930;47.412;8.790;2024-02-23T03:58:46;93522.59;;;2.78;100.00
68889;BME280;55930;47.412;8.790;2024-02-23T04:02:07;93517.78;;;2.77;100.00
68889;BME280;55930;47.412;8.790;2024-02-23T04:05:27;93518.94;;;2.85;100.00
68889;BME280;55930;47.412;8.790;2024-02-23T04:08:47;93511.69;;;2.89;100.00
68889;BME280;55930;47.412;8.790;2024-02-23T04:12:08;93513.13;;;2.90;100.00
68889;BME280;55930;47.412;8.790;2024-02-23T04:15:28;93508.44;;;2.66;100.00
68889;BME280;55930;47.412;8.790;2024-02-23T04:18:48;93513.09;;;2.62;100.00
68889;BME280;55930;47.412;8.790;2024-02-23T04:22:09;93522.13;;;2.71;100.00
68889;BME280;55930;47.412;8.790;2024-02-23T04:25:30;93528.34;;;2.64;100.00
68889;BME280;55930;47.412;8.790;2024-02-23T04:28:53;93520.13;;;2.84;100.00
68889;BME280;55930;47.412;8.790;2024-02-23T04:32:15;93538.34;;;3.05;100.00
68889;BME280;55930;47.412;8.790;2024-02-23T04:35:36;93549.25;;;3.04;100.00
68889;BME280;55930;47.412;8.790;2024-02-23T04:38:56;93543.44;;;3.09;100.00
68889;BME280;55930;47.412;8.790;2024-02-23T04:42:17;93545.63;;;3.20;100.00
68889;BME280;55930;47.412;8.790;2024-02-23T04:45:37;93549.13;;;3.17;100.00
68889;BME280;55930;47.412;8.790;2024-02-23T04:48:57;93554.81;;;3.15;100.00
68889;BME280;55930;47.412;8.790;2024-02-23T04:52:18;93563.97;;;3.11;100.00
68889;BME280;55930;47.412;8.790;2024-02-23T04:55:39;93553.03;;;3.12;100.00
68889;BME280;55930;47.412;8.790;2024-02-23T04:58:59;93549.25;;;3.04;100.00
68889;BME280;55930;47.412;8.790;2024-02-23T05:02:19;93544.59;;;3.08;100.00
68889;BME280;55930;47.412;8.790;2024-02-23T05:05:40;93555.66;;;3.03;100.00
68889;BME280;55930;47.412;8.790;2024-02-23T05:09:02;93545.34;;;3.08;100.00
68889;BME280;55930;47.412;8.790;2024-02-23T05:12:23;93523.75;;;2.95;100.00
68889;BME280;55930;47.412;8.790;2024-02-23T05:15:43;93520.72;;;3.06;100.00
68889;BME280;55930;47.412;8.790;2024-02-23T05:19:06;93533.41;;;3.07;100.00
68889;BME280;55930;47.412;8.790;2024-02-23T05:22:26;93523.94;;;3.01;100.00
68889;BME280;55930;47.412;8.790;2024-02-23T05:25:47;93527.28;;;3.01;100.00
68889;BME280;55930;47.412;8.790;2024-02-23T05:29:07;93514.19;;;3.01;100.00
68889;BME280;55930;47.412;8.790;2024-02-23T05:32:28;93510.66;;;2.95;100.00
68889;BME280;55930;47.412;8.790;2024-02-23T05:35:48;93503.38;;;2.90;100.00
68889;BME280;55930;47.412;8.790;2024-02-23T05:39:09;93518.97;;;2.94;100.00
68889;BME280;55930;47.412;8.790;2024-02-23T05:42:29;93514.00;;;2.96;100.00
68889;BME280;55930;47.412;8.790;2024-02-23T05:45:50;93507.31;;;2.86;100.00
68889;BME280;55930;47.412;8.790;2024-02-23T05:49:10;93502.09;;;2.86;100.00
68889;BME280;55930;47.412;8.790;2024-02-23T05:52:31;93488.84;;;2.98;100.00
68889;BME280;55930;47.412;8.790;2024-02-23T05:55:52;93477.63;;;2.98;100.00
68889;BME280;55930;47.412;8.790;2024-02-23T05:59:12;93463.53;;;3.04;100.00
68889;BME280;55930;47.412;8.790;2024-02-23T06:02:32;93454.97;;;2.95;100.00
68889;BME280;55930;47.412;8.790;2024-02-23T06:05:53;93459.75;;;2.87;100.00
68889;BME280;55930;47.412;8.790;2024-02-23T06:09:14;93466.28;;;2.92;100.00
68889;BME280;55930;47.412;8.790;2024-02-23T06:12:34;93469.63;;;2.92;100.00
68889;BME280;55930;47.412;8.790;2024-02-23T06:15:55;93476.78;;;2.92;100.00
68889;BME280;55930;47.412;8.790;2024-02-23T06:19:15;93486.81;;;2.84;100.00
68889;BME280;55930;47.412;8.790;2024-02-23T06:22:35;93493.63;;;2.82;100.00
68889;BME280;55930;47.412;8.790;2024-02-23T06:25:56;93487.84;;;2.87;100.00
68889;BME280;55930;47.412;8.790;2024-02-23T06:29:16;93478.09;;;2.87;100.00
68889;BME280;55930;47.412;8.790;2024-02-23T06:32:36;93487.53;;;2.94;100.00
68889;BME280;55930;47.412;8.790;2024-02-23T06:35:57;93484.19;;;2.93;100.00
68889;BME280;55930;47.412;8.790;2024-02-23T06:39:17;93508.19;;;2.92;100.00
68889;BME280;55930;47.412;8.790;2024-02-23T06:42:38;93520.13;;;2.93;100.00
68889;BME280;55930;47.412;8.790;2024-02-23T06:46:06;93500.31;;;2.83;100.00
68889;BME280;55930;47.412;8.790;2024-02-23T06:49:27;93515.19;;;2.86;100.00
68889;BME280;55930;47.412;8.790;2024-02-23T06:52:48;93511.53;;;2.92;100.00
68889;BME280;55930;47.412;8.790;2024-02-23T06:56:09;93516.63;;;2.78;100.00
68889;BME280;55930;47.412;8.790;2024-02-23T06:59:29;93525.63;;;2.77;100.00
68889;BME280;55930;47.412;8.790;2024-02-23T07:02:52;93525.06;;;2.91;100.00
68889;BME280;55930;47.412;8.790;2024-02-23T07:06:12;93527.13;;;2.87;100.00
68889;BME280;55930;47.412;8.790;2024-02-23T07:09:33;93524.63;;;2.83;100.00
68889;BME280;55930;47.412;8.790;2024-02-23T07:12:54;93531.59;;;2.77;100.00
68889;BME280;55930;47.412;8.790;2024-02-23T07:16:16;93539.88;;;2.76;100.00
68889;BME280;55930;47.412;8.790;2024-02-23T07:19:36;93558.09;;;2.88;100.00
68889;BME280;55930;47.412;8.790;2024-02-23T07:22:56;93553.56;;;2.89;100.00
68889;BME280;55930;47.412;8.790;2024-02-23T07:26:17;93550.84;;;2.92;100.00
68889;BME280;55930;47.412;8.790;2024-02-23T07:29:42;93542.97;;;2.92;100.00
68889;BME280;55930;47.412;8.790;2024-02-23T07:33:02;93545.91;;;2.94;100.00
68889;BME280;55930;47.412;8.790;2024-02-23T07:36:23;93545.72;;;2.89;100.00
68889;BME280;55930;47.412;8.790;2024-02-23T07:39:43;93551.81;;;2.77;100.00
68889;BME280;55930;47.412;8.790;2024-02-23T07:43:04;93555.19;;;2.86;100.00
68889;BME280;55930;47.412;8.790;2024-02-23T07:46:24;93549.94;;;2.95;100.00
68889;BME280;55930;47.412;8.790;2024-02-23T07:49:45;93555.91;;;2.87;100.00
68889;BME280;55930;47.412;8.790;2024-02-23T07:53:08;93553.19;;;2.99;100.00
68889;BME280;55930;47.412;8.790;2024-02-23T07:56:28;93557.28;;;3.19;100.00
68889;BME280;55930;47.412;8.790;2024-02-23T07:59:49;93551.19;;;3.31;100.00
68889;BME280;55930;47.412;8.790;2024-02-23T08:03:10;93529.19;;;3.37;100.00
68889;BME280;55930;47.412;8.790;2024-02-23T08:06:31;93513.78;;;3.49;100.00
68889;BME280;55930;47.412;8.790;2024-02-23T08:09:53;93505.72;;;3.61;100.00
68889;BME280;55930;47.412;8.790;2024-02-23T08:13:14;93490.31;;;3.54;100.00
68889;BME280;55930;47.412;8.790;2024-02-23T08:16:37;93481.56;;;3.66;100.00
68889;BME280;55930;47.412;8.790;2024-02-23T08:19:58;93471.94;;;3.72;100.00
68889;BME280;55930;47.412;8.790;2024-02-23T08:23:18;93477.59;;;3.80;100.00
68889;BME280;55930;47.412;8.790;2024-02-23T08:26:45;93457.22;;;3.75;100.00
68889;BME280;55930;47.412;8.790;2024-02-23T08:30:06;93437.41;;;3.74;100.00
68889;BME280;55930;47.412;8.790;2024-02-23T08:33:27;93419.56;;;3.87;100.00
68889;BME280;55930;47.412;8.790;2024-02-23T08:36:47;93385.00;;;3.98;100.00
68889;BME280;55930;47.412;8.790;2024-02-23T08:40:08;93396.78;;;4.35;100.00
68889;BME280;55930;47.412;8.790;2024-02-23T08:43:28;93369.13;;;4.87;100.00
68889;BME280;55930;47.412;8.790;2024-02-23T08:46:49;93350.50;;;5.29;100.00
68889;BME280;55930;47.412;8.790;2024-02-23T08:50:12;93333.00;;;5.41;100.00
68889;BME280;55930;47.412;8.790;2024-02-23T08:53:32;93349.59;;;5.62;100.00
68889;BME280;55930;47.412;8.790;2024-02-23T08:56:52;93327.41;;;5.33;100.00
68889;BME280;55930;47.412;8.790;2024-02-23T09:00:13;93292.69;;;5.00;100.00
68889;BME280;55930;47.412;8.790;2024-02-23T09:03:34;93311.44;;;4.93;100.00
68889;BME280;55930;47.412;8.790;2024-02-23T09:06:54;93305.81;;;5.00;100.00
68889;BME280;55930;47.412;8.790;2024-02-23T09:10:15;93315.22;;;4.77;100.00
68889;BME280;55930;47.412;8.790;2024-02-23T09:13:36;93323.88;;;4.54;100.00
68889;BME280;55930;47.412;8.790;2024-02-23T09:16:56;93327.91;;;4.79;100.00
68889;BME280;55930;47.412;8.790;2024-02-23T09:20:16;93306.25;;;4.69;100.00
68889;BME280;55930;47.412;8.790;2024-02-23T09:23:40;93305.41;;;4.63;100.00
68889;BME280;55930;47.412;8.790;2024-02-23T09:27:02;93308.50;;;4.61;100.00
68889;BME280;55930;47.412;8.790;2024-02-23T09:30:23;93300.91;;;4.78;100.00
68889;BME280;55930;47.412;8.790;2024-02-23T09:33:43;93297.66;;;4.83;100.00
68889;BME280;55930;47.412;8.790;2024-02-23T09:37:04;93288.97;;;4.92;100.00
68889;BME280;55930;47.412;8.790;2024-02-23T09:40:24;93283.44;;;4.90;100.00
68889;BME280;55930;47.412;8.790;2024-02-23T09:43:48;93278.81;;;4.85;100.00
68889;BME280;55930;47.412;8.790;2024-02-23T09:47:09;93277.16;;;4.87;100.00
68889;BME280;55930;47.412;8.790;2024-02-23T09:50:31;93272.63;;;4.73;100.00
68889;BME280;55930;47.412;8.790;2024-02-23T09:53:52;93275.91;;;4.83;100.00
68889;BME280;55930;47.412;8.790;2024-02-23T09:57:14;93255.81;;;4.94;100.00
68889;BME280;55930;47.412;8.790;2024-02-23T10:00:36;93254.59;;;4.95;100.00
68889;BME280;55930;47.412;8.790;2024-02-23T10:04:00;93250.59;;;5.29;100.00
68889;BME280;55930;47.412;8.790;2024-02-23T10:07:20;93241.97;;;5.29;100.00
68889;BME280;55930;47.412;8.790;2024-02-23T10:10:40;93243.09;;;5.92;100.00
68889;BME280;55930;47.412;8.790;2024-02-23T10:14:01;93240.94;;;6.11;100.00
68889;BME280;55930;47.412;8.790;2024-02-23T10:17:22;93222.88;;;5.63;100.00
68889;BME280;55930;47.412;8.790;2024-02-23T10:20:43;93218.84;;;5.68;100.00
68889;BME280;55930;47.412;8.790;2024-02-23T10:24:05;93209.75;;;6.04;100.00
68889;BME280;55930;47.412;8.790;2024-02-23T10:27:28;93204.22;;;6.22;100.00
68889;BME280;55930;47.412;8.790;2024-02-23T10:30:49;93170.34;;;5.89;100.00
68889;BME280;55930;47.412;8.790;2024-02-23T10:34:09;93193.81;;;6.13;100.00
68889;BME280;55930;47.412;8.790;2024-02-23T10:37:32;93173.56;;;5.58;100.00
68889;BME280;55930;47.412;8.790;2024-02-23T10:40:55;93180.75;;;5.98;100.00
68889;BME280;55930;47.412;8.790;2024-02-23T10:44:18;93172.50;;;5.50;100.00
68889;BME280;55930;47.412;8.790;2024-02-23T10:47:39;93205.69;;;5.68;100.00
68889;BME280;55930;47.412;8.790;2024-02-23T10:51:00;93194.31;;;5.56;100.00
68889;BME280;55930;47.412;8.790;2024-02-23T10:54:20;93190.78;;;5.80;100.00
68889;BME280;55930;47.412;8.790;2024-02-23T10:57:41;93175.91;;;5.76;100.00
68889;BME280;55930;47.412;8.790;2024-02-23T11:01:06;93169.13;;;6.10;100.00
68889;BME280;55930;47.412;8.790;2024-02-23T11:04:27;93179.63;;;6.05;100.00
68889;BME280;55930;47.412;8.790;2024-02-23T11:07:48;93185.53;;;5.80;100.00
68889;BME280;55930;47.412;8.790;2024-02-23T11:11:12;93167.81;;;6.21;100.00
68889;BME280;55930;47.412;8.790;2024-02-23T11:14:38;93158.78;;;6.53;100.00
68889;BME280;55930;47.412;8.790;2024-02-23T11:17:58;93153.75;;;6.55;100.00
68889;BME280;55930;47.412;8.790;2024-02-23T11:21:19;93125.69;;;6.78;100.00
68889;BME280;55930;47.412;8.790;2024-02-23T11:24:44;93136.75;;;6.87;100.00
68889;BME280;55930;47.412;8.790;2024-02-23T11:28:05;93130.59;;;7.33;100.00
68889;BME280;55930;47.412;8.790;2024-02-23T11:31:29;93116.88;;;6.86;99.78
68889;BME280;55930;47.412;8.790;2024-02-23T11:34:58;93110.03;;;7.48;98.40
68889;BME280;55930;47.412;8.790;2024-02-23T11:38:18;93078.69;;;7.73;91.90
68889;BME280;55930;47.412;8.790;2024-02-23T11:41:41;93089.44;;;7.58;93.13
68889;BME280;55930;47.412;8.790;2024-02-23T11:45:01;93092.22;;;7.32;94.64
68889;BME280;55930;47.412;8.790;2024-02-23T11:48:22;93110.34;;;7.19;96.30
68889;BME280;55930;47.412;8.790;2024-02-23T11:51:42;93088.66;;;7.41;95.94
68889;BME280;55930;47.412;8.790;2024-02-23T11:55:03;93074.56;;;7.55;93.61
68889;BME280;55930;47.412;8.790;2024-02-23T11:58:25;93078.94;;;7.15;93.90
68889;BME280;55930;47.412;8.790;2024-02-23T12:01:46;93066.22;;;7.79;91.70
68889;BME280;55930;47.412;8.790;2024-02-23T12:05:09;93066.06;;;8.27;91.31
68889;BME280;55930;47.412;8.790;2024-02-23T12:08:31;93054.34;;;8.33;90.54
68889;BME280;55930;47.412;8.790;2024-02-23T12:11:58;93039.19;;;8.56;87.70
68889;BME280;55930;47.412;8.790;2024-02-23T12:15:19;92991.22;;;10.39;79.45
68889;BME280;55930;47.412;8.790;2024-02-23T12:18:39;92980.78;;;10.16;77.84
68889;BME280;55930;47.412;8.790;2024-02-23T12:22:00;92978.50;;;9.60;77.58
68889;BME280;55930;47.412;8.790;2024-02-23T12:25:21;92968.44;;;9.53;78.51
68889;BME280;55930;47.412;8.790;2024-02-23T12:28:45;92958.03;;;9.61;78.33
68889;BME280;55930;47.412;8.790;2024-02-23T12:32:06;92959.81;;;8.90;78.76
68889;BME280;55930;47.412;8.790;2024-02-23T12:35:27;92962.19;;;9.51;81.22
68889;BME280;55930;47.412;8.790;2024-02-23T12:38:47;92974.88;;;10.34;79.40
68889;BME280;55930;47.412;8.790;2024-02-23T12:42:08;92918.06;;;12.49;66.68
68889;BME280;55930;47.412;8.790;2024-02-23T12:45:28;92923.88;;;10.28;66.01
68889;BME280;55930;47.412;8.790;2024-02-23T12:48:51;92908.91;;;11.55;65.92
68889;BME280;55930;47.412;8.790;2024-02-23T12:52:12;92903.91;;;11.32;65.86
68889;BME280;55930;47.412;8.790;2024-02-23T12:55:32;92891.44;;;11.59;63.12
68889;BME280;55930;47.412;8.790;2024-02-23T12:58:53;92870.50;;;11.56;61.10
68889;BME280;55930;47.412;8.790;2024-02-23T13:02:14;92897.47;;;10.12;67.48
68889;BME280;55930;47.412;8.790;2024-02-23T13:05:36;92888.91;;;9.70;67.46
68889;BME280;55930;47.412;8.790;2024-02-23T13:08:57;92874.69;;;9.38;68.11
68889;BME280;55930;47.412;8.790;2024-02-23T13:12:17;92868.69;;;9.37;69.54
68889;BME280;55930;47.412;8.790;2024-02-23T13:15:38;92864.53;;;10.31;68.34
68889;BME280;55930;47.412;8.790;2024-02-23T13:18:58;92864.41;;;9.94;68.43
68889;BME280;55930;47.412;8.790;2024-02-23T13:22:19;92850.69;;;9.66;68.63
68889;BME280;55930;47.412;8.790;2024-02-23T13:25:39;92865.09;;;8.88;69.44
68889;BME280;55930;47.412;8.790;2024-02-23T13:29:00;92855.91;;;10.01;72.01
68889;BME280;55930;47.412;8.790;2024-02-23T13:32:20;92834.81;;;10.82;66.11
68889;BME280;55930;47.412;8.790;2024-02-23T13:35:40;92830.34;;;11.78;62.32
68889;BME280;55930;47.412;8.790;2024-02-23T13:39:01;92834.28;;;11.71;65.24
68889;BME280;55930;47.412;8.790;2024-02-23T13:42:21;92830.56;;;11.61;62.67
68889;BME280;55930;47.412;8.790;2024-02-23T13:45:50;92825.06;;;10.90;61.69
68889;BME280;55930;47.412;8.790;2024-02-23T13:49:13;92791.03;;;15.37;53.12
68889;BME280;55930;47.412;8.790;2024-02-23T13:52:34;92773.25;;;14.81;49.53
68889;BME280;55930;47.412;8.790;2024-02-23T13:55:55;92777.09;;;12.96;53.55
68889;BME280;55930;47.412;8.790;2024-02-23T13:59:15;92775.84;;;11.71;55.40
68889;BME280;55930;47.412;8.790;2024-02-23T14:02:35;92769.81;;;13.72;52.83
68889;BME280;55930;47.412;8.790;2024-02-23T14:05:56;92764.59;;;11.65;54.12
68889;BME280;55930;47.412;8.790;2024-02-23T14:09:18;92776.59;;;9.84;59.11
68889;BME280;55930;47.412;8.790;2024-02-23T14:12:39;92785.88;;;9.96;62.71
68889;BME280;55930;47.412;8.790;2024-02-23T14:16:00;92795.78;;;10.15;63.18
68889;BME280;55930;47.412;8.790;2024-02-23T14:19:21;92792.66;;;9.68;63.07
68889;BME280;55930;47.412;8.790;2024-02-23T14:22:42;92789.47;;;9.15;64.19
68889;BME280;55930;47.412;8.790;2024-02-23T14:26:03;92784.66;;;9.49;64.06
68889;BME280;55930;47.412;8.790;2024-02-23T14:29:24;92774.50;;;8.41;64.67
68889;BME280;55930;47.412;8.790;2024-02-23T14:32:44;92775.00;;;8.80;68.80
68889;BME280;55930;47.412;8.790;2024-02-23T14:36:05;92776.78;;;8.03;70.08
68889;BME280;55930;47.412;8.790;2024-02-23T14:39:28;92771.25;;;8.13;69.20
68889;BME280;55930;47.412;8.790;2024-02-23T14:42:48;92773.84;;;8.18;70.15
68889;BME280;55930;47.412;8.790;2024-02-23T14:46:08;92772.47;;;8.06;70.80
68889;BME280;55930;47.412;8.790;2024-02-23T14:49:29;92768.56;;;8.18;73.75
68889;BME280;55930;47.412;8.790;2024-02-23T14:52:50;92776.53;;;8.07;73.61
68889;BME280;55930;47.412;8.790;2024-02-23T14:56:10;92773.44;;;7.97;74.11
68889;BME280;55930;47.412;8.790;2024-02-23T14:59:31;92757.31;;;8.06;71.91
68889;BME280;55930;47.412;8.790;2024-02-23T15:02:56;92762.78;;;8.25;71.05
68889;BME280;55930;47.412;8.790;2024-02-23T15:06:19;92763.81;;;8.00;71.79
68889;BME280;55930;47.412;8.790;2024-02-23T15:09:42;92747.69;;;8.20;72.59
68889;BME280;55930;47.412;8.790;2024-02-23T15:13:03;92749.72;;;8.91;71.35
68889;BME280;55930;47.412;8.790;2024-02-23T15:16:29;92746.44;;;8.32;70.19
68889;BME280;55930;47.412;8.790;2024-02-23T15:19:53;92747.34;;;7.77;71.79
68889;BME280;55930;47.412;8.790;2024-02-23T15:23:14;92746.13;;;7.89;71.45
68889;BME280;55930;47.412;8.790;2024-02-23T15:26:34;92753.91;;;8.23;72.85
68889;BME280;55930;47.412;8.790;2024-02-23T15:29:55;92752.28;;;8.08;71.83
68889;BME280;55930;47.412;8.790;2024-02-23T15:33:15;92747.19;;;8.22;72.38
68889;BME280;55930;47.412;8.790;2024-02-23T15:36:36;92743.63;;;8.14;75.04
68889;BME280;55930;47.412;8.790;2024-02-23T15:39:59;92738.66;;;7.82;73.17
68889;BME280;55930;47.412;8.790;2024-02-23T15:43:19;92744.75;;;8.35;74.06
68889;BME280;55930;47.412;8.790;2024-02-23T15:46:41;92730.44;;;8.96;74.48
68889;BME280;55930;47.412;8.790;2024-02-23T15:50:02;92724.72;;;8.92;71.68
68889;BME280;55930;47.412;8.790;2024-02-23T15:53:22;92713.13;;;8.95;74.93
68889;BME280;55930;47.412;8.790;2024-02-23T15:56:45;92708.91;;;8.45;74.64
68889;BME280;55930;47.412;8.790;2024-02-23T16:00:06;92717.91;;;8.20;73.63
68889;BME280;55930;47.412;8.790;2024-02-23T16:03:27;92705.78;;;7.83;71.29
68889;BME280;55930;47.412;8.790;2024-02-23T16:06:50;92708.19;;;7.87;72.64
68889;BME280;55930;47.412;8.790;2024-02-23T16:10:10;92720.22;;;7.77;74.50
68889;BME280;55930;47.412;8.790;2024-02-23T16:13:33;92719.78;;;7.61;74.44
68889;BME280;55930;47.412;8.790;2024-02-23T16:16:53;92711.25;;;7.16;74.66
68889;BME280;55930;47.412;8.790;2024-02-23T16:20:14;92718.66;;;7.23;75.30
68889;BME280;55930;47.412;8.790;2024-02-23T16:23:37;92718.66;;;7.12;77.98
68889;BME280;55930;47.412;8.790;2024-02-23T16:26:59;92714.34;;;6.98;76.88
68889;BME280;55930;47.412;8.790;2024-02-23T16:30:20;92707.19;;;6.93;77.64
68889;BME280;55930;47.412;8.790;2024-02-23T16:33:40;92726.25;;;6.32;100.00
68889;BME280;55930;47.412;8.790;2024-02-23T16:37:01;92729.84;;;6.40;100.00
68889;BME280;55930;47.412;8.790;2024-02-23T16:40:24;92740.84;;;6.33;100.00
68889;BME280;55930;47.412;8.790;2024-02-23T16:43:55;92758.06;;;6.23;100.00
68889;BME280;55930;47.412;8.790;2024-02-23T16:47:16;92763.97;;;6.07;100.00
68889;BME280;55930;47.412;8.790;2024-02-23T16:50:37;92772.78;;;5.93;100.00
68889;BME280;55930;47.412;8.790;2024-02-23T16:54:01;92779.38;;;5.77;100.00
68889;BME280;55930;47.412;8.790;2024-02-23T16:57:23;92790.69;;;5.52;100.00
68889;BME280;55930;47.412;8.790;2024-02-23T17:00:44;92809.88;;;5.26;100.00
68889;BME280;55930;47.412;8.790;2024-02-23T17:04:04;92838.91;;;5.12;100.00
68889;BME280;55930;47.412;8.790;2024-02-23T17:07:24;92864.44;;;5.11;100.00
68889;BME280;55930;47.412;8.790;2024-02-23T17:10:47;92869.66;;;5.06;100.00
68889;BME280;55930;47.412;8.790;2024-02-23T17:14:08;92881.72;;;4.92;100.00
68889;BME280;55930;47.412;8.790;2024-02-23T17:17:35;92917.84;;;4.77;100.00
68889;BME280;55930;47.412;8.790;2024-02-23T17:20:56;92904.59;;;4.86;100.00
68889;BME280;55930;47.412;8.790;2024-02-23T17:24:16;92865.19;;;5.12;100.00
68889;BME280;55930;47.412;8.790;2024-02-23T17:27:37;92905.13;;;4.70;100.00
68889;BME280;55930;47.412;8.790;2024-02-23T17:30:58;92934.47;;;4.68;100.00
68889;BME280;55930;47.412;8.790;2024-02-23T17:34:18;92932.13;;;4.70;100.00
68889;BME280;55930;47.412;8.790;2024-02-23T17:37:39;92939.44;;;4.66;100.00
68889;BME280;55930;47.412;8.790;2024-02-23T17:40:59;92954.72;;;4.47;100.00
68889;BME280;55930;47.412;8.790;2024-02-23T17:44:20;92960.22;;;4.29;100.00
68889;BME280;55930;47.412;8.790;2024-02-23T17:47:40;92990.84;;;4.03;100.00